Time;durP1;ratioP1;P1;durP2;ratioP2;P2;SDS_P1;SDS_P2;PMS_P1;PMS_P2;Temp;Humidity;BMP_temperature;BMP_pressure;BME280_temperature;BME280_humidity;BME280_pressure;Samples;Min_cycle;Max_cycle;Signal;HPM_P1;HPM_P2
2022/07/26 00:01:15;;;;;;;5.35;3.78;;;;;;;25.62;50.09;98099.50;5014445;28;20534;-66
2022/07/26 00:04:00;;;;;;;5.00;3.47;;;;;;;25.63;49.84;98094.94;5013482;28;20523;-66
2022/07/26 00:06:45;;;;;;;5.80;3.55;;;;;;;25.59;49.75;98092.69;5012696;28;20046;-66
2022/07/26 00:09:30;;;;;;;6.05;4.00;;;;;;;25.55;50.07;98091.50;5014948;28;20041;-67
2022/07/26 00:12:14;;;;;;;4.57;3.50;;;;;;;25.60;50.53;98096.19;5029778;28;20049;-67
2022/07/26 00:15:01;;;;;;;4.90;3.95;;;;;;;25.59;50.32;98098.03;5021322;28;20037;-66
2022/07/26 00:17:45;;;;;;;3.97;3.35;;;;;;;25.53;50.81;98092.72;5013332;28;20057;-66
2022/07/26 00:20:30;;;;;;;5.28;3.85;;;;;;;25.47;50.56;98094.44;5004351;28;20088;-66
2022/07/26 00:23:15;;;;;;;11.02;6.78;;;;;;;25.24;51.17;98101.22;5026109;28;20096;-66
2022/07/26 00:26:00;;;;;;;5.93;4.15;;;;;;;25.12;51.69;98098.41;5013543;28;20065;-66
2022/07/26 00:28:44;;;;;;;5.88;3.80;;;;;;;25.05;51.80;98095.78;5024223;28;20068;-66
2022/07/26 00:31:30;;;;;;;8.40;4.50;;;;;;;25.01;51.96;98097.25;5013054;28;20072;-66
2022/07/26 00:34:14;;;;;;;5.72;3.75;;;;;;;25.01;52.08;98107.97;5013113;28;20069;-66
2022/07/26 00:37:02;;;;;;;4.72;3.20;;;;;;;24.99;52.27;98102.00;5013244;28;20060;-66
2022/07/26 00:39:48;;;;;;;5.47;3.63;;;;;;;24.93;52.47;98087.63;5013248;28;20451;-66
2022/07/26 00:42:32;;;;;;;5.00;3.50;;;;;;;24.75;52.75;98087.47;5013129;28;20073;-66
2022/07/26 00:45:18;;;;;;;5.18;3.17;;;;;;;24.71;53.11;98093.25;5011936;28;20113;-66
2022/07/26 00:48:03;;;;;;;6.57;3.47;;;;;;;24.84;52.75;98087.00;5026183;28;20502;-66
2022/07/26 00:50:48;;;;;;;6.10;3.83;;;;;;;24.77;52.70;98083.56;5013452;28;20100;-66
2022/07/26 00:53:32;;;;;;;7.00;3.65;;;;;;;24.77;53.27;98082.75;5011123;28;20042;-66
2022/07/26 00:56:18;;;;;;;4.38;3.17;;;;;;;24.64;53.50;98084.47;5012911;28;20034;-66
2022/07/26 00:59:03;;;;;;;11.73;3.60;;;;;;;24.64;53.49;98092.50;4999477;28;20037;-66
2022/07/26 01:01:48;;;;;;;4.57;3.00;;;;;;;24.66;53.75;98084.25;4997506;28;20096;-66
2022/07/26 01:04:33;;;;;;;7.15;3.33;;;;;;;24.69;53.48;98089.97;5012995;28;20108;-66
2022/07/26 01:07:18;;;;;;;5.45;3.80;;;;;;;24.60;53.35;98080.56;5011559;28;20060;-66
2022/07/26 01:10:07;;;;;;;4.70;3.53;;;;;;;24.60;53.41;98088.59;5013885;28;20350;-67
2022/07/26 01:12:52;;;;;;;6.53;3.88;;;;;;;24.74;53.20;98097.38;5016008;28;20049;-65
2022/07/26 01:15:36;;;;;;;7.82;3.83;;;;;;;24.65;53.11;98083.41;5025940;28;20485;-66
2022/07/26 01:18:21;;;;;;;9.35;3.88;;;;;;;24.67;53.44;98067.97;5008929;28;20033;-67
2022/07/26 01:21:08;;;;;;;4.22;3.10;;;;;;;24.66;54.03;98076.22;5009602;28;20045;-66
2022/07/26 01:23:52;;;;;;;4.10;3.28;;;;;;;24.61;53.75;98088.38;5011998;28;20076;-66
2022/07/26 01:26:37;;;;;;;5.50;3.75;;;;;;;24.63;53.34;98088.16;5012467;28;20172;-66
2022/07/26 01:29:24;;;;;;;4.40;3.33;;;;;;;24.63;53.33;98090.03;5011753;28;20038;-66
2022/07/26 01:32:08;;;;;;;5.00;3.70;;;;;;;24.66;53.38;98098.44;5011579;28;20062;-66
2022/07/26 01:34:53;;;;;;;5.10;3.17;;;;;;;24.60;53.85;98091.25;5012354;28;20372;-66
2022/07/26 01:37:40;;;;;;;5.57;3.55;;;;;;;24.72;53.25;98100.28;4998962;28;20096;-66
2022/07/26 01:40:24;;;;;;;4.88;3.47;;;;;;;24.69;53.38;98097.19;5010444;28;20066;-66
2022/07/26 01:43:09;;;;;;;6.03;3.60;;;;;;;24.61;53.45;98112.47;5012061;28;20343;-66
2022/07/26 01:45:54;;;;;;;6.85;3.83;;;;;;;24.64;53.80;98121.09;5011041;28;20111;-66
2022/07/26 01:48:39;;;;;;;5.70;3.45;;;;;;;24.75;53.82;98181.19;5012026;28;20038;-66
2022/07/26 01:51:23;;;;;;;4.30;3.30;;;;;;;24.72;54.21;98220.75;5011507;28;20046;-66
2022/07/26 01:54:10;;;;;;;4.72;3.58;;;;;;;24.35;56.43;98239.97;4993331;28;20034;-66
2022/07/26 01:56:54;;;;;;;7.20;4.10;;;;;;;24.62;55.61;98255.19;5012165;28;20038;-67
2022/07/26 01:59:39;;;;;;;5.43;4.00;;;;;;;24.55;55.75;98251.69;5004764;28;20067;-67
2022/07/26 02:02:24;;;;;;;5.70;4.00;;;;;;;24.34;56.35;98250.91;5010937;28;20140;-67
2022/07/26 02:05:08;;;;;;;6.82;3.65;;;;;;;24.44;57.68;98250.47;5004782;28;20049;-67
2022/07/26 02:07:53;;;;;;;7.40;4.05;;;;;;;24.54;57.09;98252.72;5024851;28;20113;-67
2022/07/26 02:13:41;;;;;;;6.03;3.35;;;;;;;24.41;58.50;98261.59;5011219;28;20076;-66
2022/07/26 02:16:26;;;;;;;14.50;3.25;;;;;;;24.24;59.53;98251.31;4998045;28;20244;-66
2022/07/26 02:19:10;;;;;;;9.88;2.97;;;;;;;24.08;60.42;98260.56;5010205;28;20156;-66
2022/07/26 02:21:57;;;;;;;6.28;2.90;;;;;;;23.97;61.08;98257.47;5011698;28;20072;-66
2022/07/26 02:24:41;;;;;;;9.52;2.97;;;;;;;23.83;61.87;98258.47;5010644;28;20053;-66
2022/07/26 02:27:26;;;;;;;11.27;3.20;;;;;;;23.81;62.32;98269.38;5011457;28;20069;-65
2022/07/26 02:30:11;;;;;;;9.85;2.85;;;;;;;23.78;62.71;98268.97;5011339;28;20475;-65
2022/07/26 02:32:56;;;;;;;8.95;2.92;;;;;;;23.53;63.90;98289.09;5023771;28;20054;-66
2022/07/26 02:35:42;;;;;;;11.43;2.90;;;;;;;23.56;64.40;98285.19;4999252;28;20049;-66
2022/07/26 02:38:27;;;;;;;12.90;3.10;;;;;;;23.59;64.40;98284.78;5011311;28;20109;-66
2022/07/26 02:41:11;;;;;;;7.03;2.88;;;;;;;23.36;65.14;98276.06;5024111;28;20113;-67
2022/07/26 02:43:57;;;;;;;8.77;2.70;;;;;;;23.37;64.93;98253.63;4999243;28;20061;-65
2022/07/26 02:46:41;;;;;;;10.65;2.50;;;;;;;23.38;64.89;98266.00;5010528;28;20046;-66
2022/07/26 02:49:25;;;;;;;9.52;3.03;;;;;;;23.36;64.81;98277.88;5010810;28;20502;-66
2022/07/26 02:52:10;;;;;;;8.70;2.45;;;;;;;23.45;64.08;98276.69;5010836;28;20041;-65
2022/07/26 02:54:56;;;;;;;17.48;2.88;;;;;;;23.33;64.47;98279.13;5007902;28;20069;-65
2022/07/26 02:57:41;;;;;;;14.85;2.50;;;;;;;23.44;63.81;98280.41;5023515;28;20046;-66
2022/07/26 03:00:26;;;;;;;7.20;2.38;;;;;;;23.36;64.14;98285.91;5023191;28;20069;-66
2022/07/26 03:03:12;;;;;;;5.75;2.05;;;;;;;23.43;64.18;98283.28;5023249;28;20042;-65
2022/07/26 03:05:57;;;;;;;13.13;2.88;;;;;;;23.30;65.00;98282.19;5009936;28;20104;-65
2022/07/26 03:08:42;;;;;;;6.25;2.28;;;;;;;23.13;65.51;98285.22;5010885;28;20057;-65
2022/07/26 03:11:26;;;;;;;18.42;3.22;;;;;;;23.07;65.83;98269.16;5009122;28;20038;-65
2022/07/26 03:14:11;;;;;;;9.07;2.47;;;;;;;23.05;65.77;98268.53;5007504;28;20041;-65
2022/07/26 03:16:56;;;;;;;8.73;2.58;;;;;;;22.97;66.26;98269.53;4997923;28;20079;-66
2022/07/26 03:19:41;;;;;;;8.18;2.78;;;;;;;22.99;66.33;98264.81;5013116;28;20474;-65
2022/07/26 03:22:26;;;;;;;5.85;2.30;;;;;;;23.00;66.16;98264.63;5014393;28;20038;-65
2022/07/26 03:25:10;;;;;;;5.30;2.45;;;;;;;22.91;66.78;98255.13;5014202;28;20052;-65
2022/07/26 03:27:58;;;;;;;14.13;3.08;;;;;;;22.69;67.73;98265.06;5027710;28;20050;-65
2022/07/26 03:30:43;;;;;;;4.18;2.35;;;;;;;22.60;68.53;98264.41;5015797;28;20049;-65
2022/07/26 03:33:29;;;;;;;9.45;2.33;;;;;;;22.58;68.71;98255.72;5023835;28;20049;-65
2022/07/26 03:36:13;;;;;;;9.13;3.30;;;;;;;22.56;68.97;98252.44;5013335;28;20045;-66
2022/07/26 03:38:59;;;;;;;7.60;2.90;;;;;;;22.42;69.83;98244.34;5013150;28;20356;-66
2022/07/26 03:41:43;;;;;;;6.18;3.00;;;;;;;22.43;70.33;98239.81;5010513;28;20034;-65
2022/07/26 03:44:28;;;;;;;6.45;2.63;;;;;;;22.24;71.53;98224.34;5023905;28;20048;-65
2022/07/26 03:47:13;;;;;;;4.32;2.60;;;;;;;22.30;71.56;98197.88;5013897;28;20482;-65
2022/07/26 03:49:58;;;;;;;4.65;2.42;;;;;;;22.28;72.32;98198.91;5013411;28;20375;-66
2022/07/26 03:52:42;;;;;;;6.70;2.67;;;;;;;22.05;74.92;98199.16;5027281;28;20366;-66
2022/07/26 03:58:30;;;;;;;5.22;3.00;;;;;;;21.64;78.58;98214.78;5013868;28;20097;-66
2022/07/26 04:01:15;;;;;;;6.70;2.40;;;;;;;21.56;79.25;98212.25;5012506;28;20042;-67
2022/07/26 04:04:00;;;;;;;4.03;2.53;;;;;;;21.57;79.38;98181.94;5012144;28;20049;-66
2022/07/26 04:06:46;;;;;;;4.28;2.80;;;;;;;21.28;81.48;98176.53;5013676;28;20045;-66
2022/07/26 04:09:31;;;;;;;3.95;2.55;;;;;;;21.26;82.81;98161.78;5014296;28;20037;-66
2022/07/26 04:12:15;;;;;;;5.45;2.60;;;;;;;21.15;84.20;98129.28;5013739;28;20065;-66
2022/07/26 04:15:00;;;;;;;5.05;2.33;;;;;;;21.07;85.92;98123.28;5019190;28;20092;-66
2022/07/26 04:17:47;;;;;;;3.67;2.15;;;;;;;20.72;91.27;98122.06;5011707;28;20490;-66
2022/07/26 04:20:31;;;;;;;5.22;2.10;;;;;;;20.64;92.04;98141.63;5009790;28;20037;-66
2022/07/26 04:23:17;;;;;;;3.80;2.50;;;;;;;20.61;92.42;98138.50;5011569;28;20053;-66
2022/07/26 04:26:02;;;;;;;3.25;2.40;;;;;;;20.46;93.72;98144.66;5009486;28;20037;-66
2022/07/26 04:28:48;;;;;;;4.68;2.42;;;;;;;20.41;94.05;98152.38;5023574;28;20068;-66
2022/07/26 04:31:32;;;;;;;6.18;2.22;;;;;;;20.31;94.95;98176.56;5010319;28;20481;-67
2022/07/26 04:34:17;;;;;;;7.13;2.50;;;;;;;20.28;96.06;98172.47;5012826;28;20038;-67
2022/07/26 04:37:02;;;;;;;3.05;1.98;;;;;;;20.46;94.95;98194.38;5021290;28;20033;-65
2022/07/26 04:39:46;;;;;;;3.97;2.17;;;;;;;20.44;94.43;98234.44;5025373;28;20390;-66
2022/07/26 04:42:31;;;;;;;4.05;1.77;;;;;;;20.50;92.74;98254.19;5011896;28;20030;-65
2022/07/26 04:45:17;;;;;;;6.28;2.35;;;;;;;20.56;92.27;98270.22;5012675;28;20069;-65
2022/07/26 04:48:02;;;;;;;5.30;2.20;;;;;;;20.41;92.77;98280.88;5004867;28;20049;-65
2022/07/26 04:50:47;;;;;;;3.47;1.90;;;;;;;20.44;92.39;98303.59;5012491;28;20041;-66
2022/07/26 04:53:31;;;;;;;4.07;1.85;;;;;;;20.56;90.58;98339.41;5012565;28;20045;-65
2022/07/26 04:56:16;;;;;;;4.32;2.00;;;;;;;20.72;89.70;98358.88;5011026;28;20403;-65
2022/07/26 04:59:01;;;;;;;3.63;1.60;;;;;;;20.83;88.49;98370.91;5011661;28;20527;-67
2022/07/26 05:01:46;;;;;;;3.35;1.75;;;;;;;20.95;87.68;98381.16;5011513;28;20034;-66
2022/07/26 05:04:31;;;;;;;3.58;1.92;;;;;;;20.94;88.07;98385.63;5010154;28;20478;-63
2022/07/26 05:07:16;;;;;;;5.03;2.08;;;;;;;20.86;89.04;98383.06;5010895;28;20414;-63
2022/07/26 05:10:01;;;;;;;4.03;1.50;;;;;;;20.82;89.80;98379.91;5025732;28;20398;-63
2022/07/26 05:12:46;;;;;;;3.20;2.05;;;;;;;20.77;89.80;98367.16;5012733;28;20045;-65
2022/07/26 05:15:32;;;;;;;5.47;2.00;;;;;;;20.71;89.42;98357.22;5011310;28;20037;-66
2022/07/26 05:18:17;;;;;;;2.58;1.55;;;;;;;20.83;89.02;98349.63;5004639;28;20474;-63
2022/07/26 05:21:02;;;;;;;4.65;1.65;;;;;;;21.97;82.37;98360.09;5000126;28;20060;-51
2022/07/26 05:23:47;;;;;;;3.97;1.88;;;;;;;21.83;82.74;98360.97;5024624;28;20386;-53
2022/07/26 05:26:32;;;;;;;3.00;1.48;;;;;;;21.93;83.47;98352.66;5011162;28;20088;-50
2022/07/26 05:29:16;;;;;;;3.83;2.33;;;;;;;21.50;86.49;98360.38;5024225;28;20034;-61
2022/07/26 05:32:01;;;;;;;3.28;2.15;;;;;;;20.80;92.50;98345.50;5011550;28;20040;-59
2022/07/26 05:34:46;;;;;;;2.65;1.75;;;;;;;20.58;95.73;98335.75;4996793;28;20080;-58
2022/07/26 05:37:30;;;;;;;4.57;2.10;;;;;;;21.00;93.54;98346.81;5009775;28;20061;-58
2022/07/26 05:40:15;;;;;;;5.82;2.28;;;;;;;21.92;86.69;98335.03;5012070;28;20042;-58
2022/07/26 05:43:01;;;;;;;3.80;2.20;;;;;;;21.46;88.02;98335.09;5011552;28;20176;-59
2022/07/26 05:45:46;;;;;;;4.68;2.10;;;;;;;20.56;94.13;98331.41;5023482;28;20034;-59
2022/07/26 05:48:31;;;;;;;4.25;1.83;;;;;;;20.27;97.36;98346.28;5010452;28;20080;-59
2022/07/26 05:51:19;;;;;;;4.40;2.00;;;;;;;20.20;99.26;98358.66;5010122;28;20045;-59
2022/07/26 05:54:05;;;;;;;6.53;2.05;;;;;;;20.41;99.96;98375.78;4986820;28;20045;-61
2022/07/26 05:56:56;;;;;;;3.85;2.05;;;;;;;20.25;100.00;98392.69;5003156;28;20029;-61
2022/07/26 05:59:50;;;;;;;4.32;2.78;;;;;;;20.66;100.00;98410.97;5002150;28;20056;-59
2022/07/26 06:02:34;;;;;;;4.45;2.67;;;;;;;20.48;100.00;98411.31;4995319;28;20037;-60
2022/07/26 06:05:19;;;;;;;5.82;2.25;;;;;;;20.74;100.00;98427.91;4995117;28;20054;-63
2022/07/26 06:08:04;;;;;;;4.13;2.65;;;;;;;20.67;100.00;98435.75;5002627;28;20046;-66
2022/07/26 06:10:49;;;;;;;5.00;2.60;;;;;;;20.40;100.00;98446.75;4995147;28;20133;-59
2022/07/26 06:13:34;;;;;;;10.13;7.45;;;;;;;20.33;100.00;98450.31;4990359;28;20077;-58
2022/07/26 06:16:19;;;;;;;6.80;2.83;;;;;;;20.15;100.00;98444.28;5010203;28;20048;-58
2022/07/26 06:19:04;;;;;;;5.90;2.75;;;;;;;21.13;100.00;98418.91;5009259;28;20042;-51
2022/07/26 06:21:48;;;;;;;4.00;2.83;;;;;;;21.10;100.00;98419.28;4995588;28;20098;-51
2022/07/26 06:24:33;;;;;;;5.38;2.58;;;;;;;21.83;94.55;98417.78;5007086;28;20177;-51
2022/07/26 06:27:18;;;;;;;3.30;2.20;;;;;;;21.49;96.08;98397.88;5009178;28;20060;-52
2022/07/26 06:30:03;;;;;;;3.75;2.30;;;;;;;21.08;97.18;98381.34;4994362;28;20529;-50
2022/07/26 06:32:48;;;;;;;5.88;2.28;;;;;;;20.83;98.78;98351.44;5005787;28;20086;-61
2022/07/26 06:35:34;;;;;;;5.68;2.20;;;;;;;20.64;100.00;98348.31;5006662;28;20034;-51
2022/07/26 06:38:19;;;;;;;3.25;1.75;;;;;;;20.78;97.71;98354.66;5012316;28;20465;-52
2022/07/26 06:41:04;;;;;;;3.30;1.90;;;;;;;20.53;99.04;98355.72;5015897;28;20450;-52
2022/07/26 06:43:48;;;;;;;3.42;2.40;;;;;;;20.80;97.25;98355.31;4997754;28;20113;-53
2022/07/26 06:46:33;;;;;;;3.63;2.20;;;;;;;20.69;99.40;98377.88;4989459;28;20426;-61
2022/07/26 06:49:19;;;;;;;5.60;2.20;;;;;;;20.40;100.00;98395.41;5013222;28;20044;-64
2022/07/26 06:52:04;;;;;;;3.08;2.08;;;;;;;20.04;100.00;98404.81;5024534;28;20434;-64
2022/07/26 06:54:49;;;;;;;3.33;2.08;;;;;;;19.89;100.00;98397.56;5011498;28;20390;-65
2022/07/26 06:57:34;;;;;;;3.10;1.95;;;;;;;19.68;100.00;98391.00;4997577;28;20034;-64
2022/07/26 07:00:19;;;;;;;6.07;2.47;;;;;;;19.46;100.00;98379.31;5010969;28;20038;-64
2022/07/26 07:03:04;;;;;;;4.25;2.10;;;;;;;19.62;100.00;98391.69;5012985;28;20057;-64
2022/07/26 07:05:49;;;;;;;5.85;2.20;;;;;;;19.67;100.00;98399.13;5010415;28;20116;-65
2022/07/26 07:08:34;;;;;;;2.58;2.00;;;;;;;19.67;100.00;98399.13;5009732;28;20092;-65
2022/07/26 07:11:18;;;;;;;2.88;2.03;;;;;;;19.84;100.00;98396.41;5022739;28;20053;-65
2022/07/26 07:14:03;;;;;;;3.45;1.90;;;;;;;19.84;100.00;98399.91;5010018;28;20133;-65
2022/07/26 07:16:50;;;;;;;3.03;1.77;;;;;;;20.11;100.00;98389.78;5010306;28;20455;-65
2022/07/26 07:19:36;;;;;;;3.38;1.90;;;;;;;20.23;100.00;98392.03;5008424;28;20053;-65
2022/07/26 07:22:20;;;;;;;3.67;1.88;;;;;;;20.50;100.00;98395.19;5010911;28;20049;-65
2022/07/26 07:25:05;;;;;;;3.67;2.10;;;;;;;20.66;99.67;98395.00;4997769;28;20045;-65
2022/07/26 07:27:50;;;;;;;3.88;1.90;;;;;;;20.40;100.00;98417.50;5008846;28;20057;-65
2022/07/26 07:30:35;;;;;;;3.80;1.92;;;;;;;20.19;100.00;98421.66;4997769;28;20045;-65
2022/07/26 07:33:19;;;;;;;2.72;1.80;;;;;;;20.13;100.00;98425.00;5009875;28;20053;-66
2022/07/26 07:36:04;;;;;;;2.90;1.98;;;;;;;20.16;100.00;98432.63;5011114;28;20460;-65
2022/07/26 07:38:49;;;;;;;4.60;2.05;;;;;;;19.94;100.00;98445.66;5010304;28;20038;-65
2022/07/26 07:41:35;;;;;;;4.20;2.17;;;;;;;19.82;100.00;98461.19;5011060;28;20479;-66
2022/07/26 07:44:19;;;;;;;2.85;1.67;;;;;;;19.90;100.00;98478.09;5006265;28;20042;-66
2022/07/26 07:47:05;;;;;;;5.90;2.13;;;;;;;20.12;100.00;98476.53;5009854;28;20062;-65
2022/07/26 07:49:49;;;;;;;3.03;1.70;;;;;;;19.96;100.00;98447.34;5009104;28;20427;-66
2022/07/26 07:52:34;;;;;;;3.28;2.08;;;;;;;19.92;100.00;98431.75;4995630;28;20482;-66
2022/07/26 07:55:19;;;;;;;3.33;2.30;;;;;;;19.91;100.00;98418.63;5010734;28;20041;-66
2022/07/26 07:58:04;;;;;;;4.30;2.20;;;;;;;20.11;100.00;98418.22;5010682;28;20045;-65
2022/07/26 08:00:48;;;;;;;4.45;2.38;;;;;;;20.19;100.00;98432.28;5022804;28;20331;-66
2022/07/26 08:03:33;;;;;;;2.58;1.40;;;;;;;20.66;100.00;98448.22;5013347;28;20045;-66
2022/07/26 08:06:18;;;;;;;5.00;2.58;;;;;;;20.71;100.00;98438.91;5001736;28;20041;-65
2022/07/26 08:09:03;;;;;;;5.10;3.03;;;;;;;20.46;100.00;98468.34;5012320;28;20482;-65
2022/07/26 08:11:48;;;;;;;4.45;2.30;;;;;;;20.21;100.00;98471.16;5014155;28;20753;-65
2022/07/26 08:14:32;;;;;;;4.18;2.40;;;;;;;20.29;100.00;98465.78;5014283;28;20088;-65
2022/07/26 08:17:17;;;;;;;6.95;2.72;;;;;;;20.04;100.00;98465.94;5013613;28;20053;-65
2022/07/26 08:20:03;;;;;;;3.85;2.60;;;;;;;20.08;100.00;98479.69;5013094;28;20038;-65
2022/07/26 08:22:47;;;;;;;3.67;2.58;;;;;;;20.12;100.00;98475.69;5014812;28;20042;-65
2022/07/26 08:25:33;;;;;;;3.88;2.42;;;;;;;20.30;100.00;98476.25;5036133;28;20441;-65
2022/07/26 08:28:17;;;;;;;5.45;2.10;;;;;;;20.39;100.00;98484.19;5013060;28;21446;-65
2022/07/26 08:31:02;;;;;;;5.00;2.40;;;;;;;20.76;100.00;98489.75;5013829;28;20056;-65
2022/07/26 08:33:47;;;;;;;4.35;2.42;;;;;;;20.80;100.00;98485.72;5011670;28;20128;-65
2022/07/26 08:36:32;;;;;;;4.13;2.45;;;;;;;20.68;100.00;98490.63;5013439;28;20466;-66
2022/07/26 08:39:17;;;;;;;3.78;2.53;;;;;;;20.86;100.00;98489.53;5013167;28;20045;-65
2022/07/26 08:42:03;;;;;;;4.45;2.90;;;;;;;20.91;100.00;98493.28;5012885;28;20056;-65
2022/07/26 08:44:49;;;;;;;4.30;2.70;;;;;;;20.92;100.00;98486.16;5012220;28;20376;-65
2022/07/26 08:47:33;;;;;;;3.90;2.50;;;;;;;21.11;100.00;98484.81;5013823;28;20486;-65
2022/07/26 08:50:19;;;;;;;4.18;2.55;;;;;;;21.29;100.00;98489.81;5013872;28;20065;-66
2022/07/26 08:53:08;;;;;;;3.75;2.63;;;;;;;21.24;100.00;98480.69;5018987;28;20843;-66
2022/07/26 08:55:56;;;;;;;4.05;2.58;;;;;;;21.24;100.00;98470.06;5025733;28;20049;-65
2022/07/26 08:58:42;;;;;;;4.07;2.50;;;;;;;21.20;99.52;98458.13;5013800;28;20046;-65
2022/07/26 09:01:26;;;;;;;3.97;2.28;;;;;;;21.18;99.66;98455.66;5002819;28;20046;-65
2022/07/26 09:04:23;;;;;;;3.15;2.30;;;;;;;21.08;98.89;98444.41;5027355;28;20154;-65
2022/07/26 09:07:14;;;;;;;3.38;2.28;;;;;;;21.23;99.22;98455.94;5012929;28;20038;-65
2022/07/26 09:10:02;;;;;;;4.55;2.28;;;;;;;21.10;98.31;98455.72;4999921;28;20075;-65
2022/07/26 09:12:56;;;;;;;3.92;2.75;;;;;;;21.02;98.90;98462.75;5012638;28;20038;-65
2022/07/26 09:15:41;;;;;;;4.38;2.65;;;;;;;20.95;98.87;98474.31;5011477;28;20438;-65
2022/07/26 09:18:28;;;;;;;4.13;2.70;;;;;;;20.80;100.00;98473.25;5000244;28;20105;-65
2022/07/26 09:21:37;;;;;;;5.28;2.50;;;;;;;20.84;100.00;98479.03;5025675;28;20475;-64
2022/07/26 09:24:42;;;;;;;4.38;2.67;;;;;;;21.01;99.70;98486.91;5012799;28;20046;-65
2022/07/26 09:27:35;;;;;;;3.95;2.70;;;;;;;20.82;100.00;98491.69;5011663;28;20393;-65
2022/07/26 09:30:20;;;;;;;3.95;2.67;;;;;;;20.86;100.00;98486.84;5012196;28;20057;-65
2022/07/26 09:33:06;;;;;;;3.60;2.67;;;;;;;20.70;100.00;98485.97;5012579;28;20058;-65
2022/07/26 09:36:04;;;;;;;4.95;2.80;;;;;;;20.85;100.00;98498.50;5002249;28;20084;-65
2022/07/26 09:38:52;;;;;;;4.47;2.97;;;;;;;20.98;100.00;98503.25;5010684;28;20471;-65
2022/07/26 09:41:36;;;;;;;5.15;2.70;;;;;;;21.10;100.00;98499.16;5012498;28;20046;-65
2022/07/26 09:44:24;;;;;;;4.35;2.83;;;;;;;21.17;99.58;98497.41;5001316;28;20045;-65
2022/07/26 09:47:08;;;;;;;4.85;2.78;;;;;;;21.10;99.94;98493.00;5011955;28;20056;-65
2022/07/26 09:50:18;;;;;;;4.97;3.15;;;;;;;21.20;98.68;98504.19;5012805;28;20100;-65
2022/07/26 09:53:06;;;;;;;4.47;3.08;;;;;;;21.04;99.40;98505.19;5003009;28;20045;-65
2022/07/26 09:55:51;;;;;;;4.47;2.80;;;;;;;21.10;99.60;98504.47;5011954;28;20037;-65
2022/07/26 09:58:36;;;;;;;5.10;3.20;;;;;;;21.18;99.01;98506.25;5015820;28;20049;-65
2022/07/26 10:01:21;;;;;;;5.25;3.17;;;;;;;20.97;99.64;98522.91;5011439;28;20398;-65
2022/07/26 10:04:06;;;;;;;4.07;2.95;;;;;;;21.00;99.11;98527.84;5011923;28;20049;-65
2022/07/26 10:06:51;;;;;;;5.22;2.78;;;;;;;20.97;99.98;98531.69;5011259;28;20395;-65
2022/07/26 10:09:49;;;;;;;4.95;3.08;;;;;;;21.31;97.81;98542.06;5009585;28;20034;-65
2022/07/26 10:12:34;;;;;;;6.22;2.38;;;;;;;21.29;97.54;98542.25;5012154;28;20466;-65
2022/07/26 10:15:37;;;;;;;5.28;2.90;;;;;;;21.42;95.53;98539.81;5013506;28;20521;-66
2022/07/26 10:18:37;;;;;;;4.97;3.00;;;;;;;21.66;93.38;98537.06;5013337;28;20038;-65
2022/07/26 10:21:30;;;;;;;4.38;2.95;;;;;;;21.98;91.77;98537.75;5011749;28;20042;-65
2022/07/26 10:24:28;;;;;;;4.38;3.20;;;;;;;22.99;84.94;98546.03;5010985;28;20069;-58
2022/07/26 10:27:38;;;;;;;7.65;4.43;;;;;;;23.94;81.49;98554.72;5000671;28;20475;-63
2022/07/26 10:30:26;;;;;;;43.42;10.35;;;;;;;23.76;83.31;98555.25;5011737;28;20041;-63
2022/07/26 10:33:14;;;;;;;15.85;6.97;;;;;;;24.06;81.89;98548.81;5010998;28;20136;-63
2022/07/26 10:35:59;;;;;;;40.13;13.30;;;;;;;24.45;82.63;98555.38;5011255;28;20144;-60
2022/07/26 10:38:57;;;;;;;149.23;33.53;;;;;;;24.93;78.64;98564.38;5010561;28;20475;-56
2022/07/26 10:41:55;;;;;;;9.25;5.97;;;;;;;24.31;78.16;98561.72;4998771;28;20095;-56
2022/07/26 10:44:43;;;;;;;9.95;5.72;;;;;;;24.11;77.37;98560.59;5011339;28;20041;-57
2022/07/26 10:47:29;;;;;;;8.80;5.57;;;;;;;24.36;76.68;98560.09;5011085;28;20077;-61
2022/07/26 10:50:30;;;;;;;9.07;4.75;;;;;;;24.68;75.79;98570.25;4999575;28;20042;-61
2022/07/26 10:53:24;;;;;;;8.98;5.75;;;;;;;24.21;75.95;98560.25;5009882;28;20084;-61
2022/07/26 10:56:08;;;;;;;8.50;5.28;;;;;;;24.76;73.87;98557.72;5011197;28;20479;-63
2022/07/26 10:58:53;;;;;;;9.70;5.25;;;;;;;25.04;72.95;98562.94;5011580;28;20624;-59
2022/07/26 11:01:40;;;;;;;8.95;6.60;;;;;;;24.51;73.34;98555.59;5023711;28;20454;-62
2022/07/26 11:04:25;;;;;;;10.85;6.38;;;;;;;24.15;75.37;98552.16;5010527;28;20065;-63
2022/07/26 11:07:11;;;;;;;9.98;6.05;;;;;;;24.29;78.70;98555.72;5010232;28;20049;-63
2022/07/26 11:09:57;;;;;;;9.70;5.95;;;;;;;25.14;73.85;98557.16;4997628;28;20042;-62
2022/07/26 11:12:41;;;;;;;9.82;7.15;;;;;;;24.91;72.27;98560.22;5011091;28;20041;-60
2022/07/26 11:15:25;;;;;;;12.55;6.85;;;;;;;24.63;72.70;98561.22;5011551;28;20489;-64
2022/07/26 11:18:13;;;;;;;11.20;7.40;;;;;;;24.20;75.55;98555.94;5023742;28;20041;-68
2022/07/26 11:21:09;;;;;;;13.82;6.75;;;;;;;24.71;74.16;98561.81;5011162;28;20046;-68
2022/07/26 11:24:01;;;;;;;10.75;7.63;;;;;;;24.78;72.44;98553.81;4996535;28;20045;-69
2022/07/26 11:26:46;;;;;;;9.93;7.13;;;;;;;24.77;73.33;98562.03;5011136;28;20034;-70
2022/07/26 11:29:33;;;;;;;13.35;8.50;;;;;;;24.33;73.61;98554.31;5024125;28;20045;-70
2022/07/26 11:32:20;;;;;;;12.60;7.70;;;;;;;24.80;72.15;98556.28;4999652;28;20073;-74
2022/07/26 11:35:05;;;;;;;13.05;7.93;;;;;;;24.90;70.87;98553.25;5025052;28;20133;-78
2022/07/26 11:37:55;;;;;;;11.52;8.00;;;;;;;24.89;71.54;98546.22;5002062;28;20038;-72
2022/07/26 11:40:46;;;;;;;12.15;7.28;;;;;;;25.00;70.75;98542.97;5013777;28;20041;-71
2022/07/26 11:43:37;;;;;;;10.93;7.85;;;;;;;24.84;70.82;98536.91;5004664;28;20050;-70
2022/07/26 11:46:32;;;;;;;11.65;8.07;;;;;;;25.06;70.71;98536.78;5013390;28;20057;-70
2022/07/26 11:49:23;;;;;;;10.18;7.30;;;;;;;25.51;69.60;98529.91;5013051;28;20112;-69
2022/07/26 11:52:07;;;;;;;12.52;6.97;;;;;;;25.73;68.35;98527.03;5015119;28;20026;-71
2022/07/26 11:54:55;;;;;;;9.43;6.78;;;;;;;25.97;66.64;98523.88;5013173;28;20041;-74
2022/07/26 11:57:39;;;;;;;12.52;6.88;;;;;;;25.10;68.79;98529.16;4996250;28;20035;-69
2022/07/26 12:00:24;;;;;;;9.45;6.53;;;;;;;25.42;68.61;98520.47;4998981;28;20104;-69
2022/07/26 12:03:09;;;;;;;11.05;7.18;;;;;;;25.16;68.61;98528.31;5010024;28;20046;-70
2022/07/26 12:06:05;;;;;;;11.48;6.60;;;;;;;25.09;69.51;98516.78;5012979;28;20048;-71
2022/07/26 12:08:56;;;;;;;10.20;6.82;;;;;;;25.12;69.26;98521.72;5006199;28;20058;-65
2022/07/26 12:11:43;;;;;;;9.02;6.20;;;;;;;25.57;68.14;98529.09;5013576;28;20048;-71
2022/07/26 12:14:29;;;;;;;9.70;6.43;;;;;;;25.20;68.47;98534.09;5013818;28;20793;-69
2022/07/26 12:17:16;;;;;;;13.32;6.75;;;;;;;25.10;69.69;98529.16;5013363;28;20044;-67
2022/07/26 12:20:14;;;;;;;9.27;6.03;;;;;;;25.70;68.05;98524.78;5007153;28;20045;-68
2022/07/26 12:23:03;;;;;;;10.45;6.93;;;;;;;25.77;67.39;98517.50;5023657;28;20045;-66
2022/07/26 12:25:48;;;;;;;10.10;6.85;;;;;;;25.24;68.74;98521.91;5012437;28;20046;-67
2022/07/26 12:28:41;;;;;;;11.32;6.38;;;;;;;25.81;66.45;98516.06;5012304;28;20493;-66
2022/07/26 12:31:31;;;;;;;11.70;7.13;;;;;;;25.53;68.33;98516.31;5011901;28;20042;-65
2022/07/26 12:34:20;;;;;;;9.82;6.07;;;;;;;26.10;66.13;98523.00;5023047;28;20448;-73
2022/07/26 12:37:13;;;;;;;10.40;6.70;;;;;;;26.25;65.13;98518.16;5013260;28;20033;-60
2022/07/26 12:40:10;;;;;;;8.40;6.10;;;;;;;26.33;64.57;98514.44;4998440;28;20030;-59
2022/07/26 12:42:59;;;;;;;10.02;6.28;;;;;;;26.24;65.36;98515.69;5001353;28;20068;-67
2022/07/26 12:45:44;;;;;;;10.75;6.78;;;;;;;26.25;65.21;98534.25;5011064;28;20029;-69
2022/07/26 12:48:28;;;;;;;12.70;7.55;;;;;;;25.26;67.61;98537.78;5012689;28;20041;-66
2022/07/26 12:51:13;;;;;;;10.55;7.43;;;;;;;24.71;70.84;98532.38;4999338;28;20061;-65
2022/07/26 12:53:58;;;;;;;10.73;7.88;;;;;;;24.72;69.84;98538.56;5012368;28;20045;-59
2022/07/26 12:56:42;;;;;;;13.05;7.78;;;;;;;24.28;74.24;98540.72;5025587;28;20042;-58
2022/07/26 12:59:27;;;;;;;10.25;7.95;;;;;;;23.21;81.58;98562.03;5012472;28;20042;-59
2022/07/26 13:02:12;;;;;;;13.38;8.85;;;;;;;23.36;82.47;98555.78;5025397;28;20057;-60
2022/07/26 13:04:57;;;;;;;11.85;8.63;;;;;;;23.34;85.55;98561.31;5012243;28;20075;-56